Time;durP1;ratioP1;P1;durP2;ratioP2;P2;SDS_P1;SDS_P2;PMS_P1;PMS_P2;Temp;Humidity;BMP_temperature;BMP_pressure;BME280_temperature;BME280_humidity;BME280_pressure;Samples;Min_cycle;Max_cycle;Signal;HPM_P1;HPM_P2
2022/09/18 00:02:06;;;;;;;0.10;0.10;;;10.70;99.90;;;;;;5047450;28;20650;-79
2022/09/18 00:04:32;;;;;;;0.23;0.23;;;10.70;99.90;;;;;;5049378;28;20212;-78
2022/09/18 00:06:58;;;;;;;0.10;0.10;;;10.70;99.90;;;;;;5062195;28;20180;-79
2022/09/18 00:09:23;;;;;;;0.10;0.10;;;10.70;99.90;;;;;;5047736;28;20194;-79
2022/09/18 00:11:50;;;;;;;0.17;0.17;;;10.70;99.90;;;;;;5047879;28;20205;-79
2022/09/18 00:14:22;;;;;;;0.13;0.13;;;10.80;99.90;;;;;;5049589;28;20214;-79
2022/09/18 00:16:48;;;;;;;0.53;0.40;;;10.70;99.90;;;;;;5048671;28;20653;-79
2022/09/18 00:19:15;;;;;;;0.27;0.27;;;10.80;99.90;;;;;;5048902;28;20208;-79
2022/09/18 00:21:46;;;;;;;0.10;0.10;;;10.70;99.90;;;;;;5047225;28;20186;-79
2022/09/18 00:24:12;;;;;;;0.10;0.10;;;10.80;99.90;;;;;;5064184;28;20300;-79
2022/09/18 00:26:38;;;;;;;0.10;0.10;;;10.90;99.90;;;;;;5048221;28;20698;-79
2022/09/18 00:29:04;;;;;;;0.10;0.10;;;10.90;99.90;;;;;;5046112;28;20186;-78
2022/09/18 00:31:32;;;;;;;2.33;0.33;;;10.90;99.90;;;;;;5048305;28;20211;-79
2022/09/18 00:34:00;;;;;;;0.20;0.20;;;11.00;99.90;;;;;;5048655;28;20688;-79
2022/09/18 00:36:26;;;;;;;0.13;0.13;;;11.00;99.90;;;;;;5049787;28;20185;-79
2022/09/18 00:38:52;;;;;;;0.17;0.17;;;11.00;99.90;;;;;;5044885;28;20214;-79
2022/09/18 00:41:24;;;;;;;0.30;0.30;;;11.00;99.90;;;;;;5046016;28;20195;-79
2022/09/18 00:43:51;;;;;;;0.10;0.10;;;11.00;99.90;;;;;;5047624;28;20212;-79
2022/09/18 00:46:29;;;;;;;0.20;0.20;;;11.10;99.90;;;;;;5046943;28;20207;-79
2022/09/18 00:49:15;;;;;;;0.10;0.10;;;11.10;99.90;;;;;;5047487;28;20271;-79
2022/09/18 00:51:43;;;;;;;0.30;0.20;;;11.20;99.90;;;;;;5045031;28;20271;-79
2022/09/18 00:54:20;;;;;;;0.10;0.10;;;11.10;99.90;;;;;;5046890;28;20251;-79
2022/09/18 00:56:48;;;;;;;0.10;0.10;;;11.20;99.90;;;;;;5045638;28;20216;-79
2022/09/18 00:59:21;;;;;;;0.20;0.20;;;11.20;99.90;;;;;;5046353;28;20235;-79
2022/09/18 01:01:46;;;;;;;0.57;0.57;;;11.20;99.90;;;;;;5041544;28;20188;-79
2022/09/18 01:04:12;;;;;;;0.20;0.20;;;11.30;99.90;;;;;;5032413;28;20306;-79
2022/09/18 01:06:56;;;;;;;0.10;0.10;;;11.30;99.90;;;;;;5031576;28;20196;-79
2022/09/18 01:09:47;;;;;;;0.57;0.50;;;11.40;99.90;;;;;;5033425;28;20217;-79
2022/09/18 01:12:15;;;;;;;0.20;0.20;;;11.40;99.90;;;;;;5034948;28;20247;-79
2022/09/18 01:15:03;;;;;;;0.20;0.20;;;11.40;99.90;;;;;;5032611;28;20296;-79
2022/09/18 01:17:44;;;;;;;0.10;0.10;;;11.50;99.90;;;;;;5035479;28;20543;-79
2022/09/18 01:20:36;;;;;;;0.10;0.10;;;11.50;99.90;;;;;;5031885;28;20188;-79
2022/09/18 01:23:01;;;;;;;0.10;0.10;;;11.60;99.90;;;;;;5033798;28;20203;-79
2022/09/18 01:25:36;;;;;;;0.10;0.10;;;11.50;99.90;;;;;;5033421;28;20184;-79
2022/09/18 01:28:12;;;;;;;0.30;0.23;;;11.60;99.90;;;;;;5031952;28;20191;-79
2022/09/18 01:30:41;;;;;;;0.30;0.30;;;11.60;99.90;;;;;;5027631;28;20233;-79
2022/09/18 01:33:16;;;;;;;0.10;0.10;;;11.70;99.90;;;;;;5029790;28;20255;-79
2022/09/18 01:35:54;;;;;;;0.10;0.10;;;11.70;99.90;;;;;;5027335;28;20191;-79
2022/09/18 01:38:35;;;;;;;0.10;0.10;;;11.70;99.90;;;;;;5027310;28;21197;-80
2022/09/18 01:41:06;;;;;;;0.53;0.20;;;11.70;99.90;;;;;;5027210;28;20189;-79
2022/09/18 01:43:35;;;;;;;0.13;0.13;;;11.80;99.90;;;;;;5026522;28;20235;-79
2022/09/18 01:46:05;;;;;;;0.20;0.20;;;11.80;99.90;;;;;;5028122;28;20257;-79
2022/09/18 01:48:35;;;;;;;0.40;0.40;;;11.80;99.90;;;;;;5027956;28;20192;-79
2022/09/18 01:51:19;;;;;;;0.17;0.17;;;11.80;99.90;;;;;;5030800;28;20592;-79
2022/09/18 01:53:50;;;;;;;0.10;0.10;;;11.80;99.90;;;;;;5025157;28;20201;-79
2022/09/18 01:56:37;;;;;;;0.10;0.10;;;11.80;99.90;;;;;;5024710;28;20200;-79
2022/09/18 01:59:08;;;;;;;0.10;0.10;;;11.80;99.90;;;;;;5031378;28;20242;-79
2022/09/18 02:01:36;;;;;;;0.10;0.10;;;11.80;99.90;;;;;;5028048;28;20268;-79
2022/09/18 02:04:08;;;;;;;0.17;0.17;;;11.80;99.90;;;;;;5025724;28;20208;-79
2022/09/18 02:06:45;;;;;;;0.10;0.10;;;11.80;99.90;;;;;;5023374;28;20739;-79
2022/09/18 02:09:11;;;;;;;0.10;0.10;;;11.90;99.90;;;;;;5027490;28;20177;-79
2022/09/18 02:11:41;;;;;;;0.50;0.50;;;11.80;99.90;;;;;;5029462;28;20204;-79
2022/09/18 02:14:20;;;;;;;0.10;0.10;;;11.80;99.90;;;;;;5032697;28;20563;-79
2022/09/18 02:16:49;;;;;;;0.10;0.10;;;11.80;99.90;;;;;;5032042;28;20286;-79
2022/09/18 02:19:21;;;;;;;0.10;0.10;;;11.80;99.90;;;;;;5029838;28;20199;-79
2022/09/18 02:21:49;;;;;;;0.10;0.10;;;11.80;99.90;;;;;;5032126;28;20730;-79
2022/09/18 02:24:18;;;;;;;0.23;0.23;;;11.90;99.90;;;;;;5030838;28;20224;-79
2022/09/18 02:26:47;;;;;;;0.10;0.10;;;11.90;99.90;;;;;;5033011;28;20278;-79
2022/09/18 02:29:14;;;;;;;0.10;0.10;;;11.90;99.90;;;;;;5032707;28;21246;-79
2022/09/18 02:31:39;;;;;;;0.10;0.10;;;12.00;99.90;;;;;;5031939;28;20241;-79
2022/09/18 02:34:09;;;;;;;0.10;0.10;;;12.10;99.90;;;;;;5031414;28;20237;-79
2022/09/18 02:37:03;;;;;;;0.20;0.13;;;12.00;99.90;;;;;;5031531;28;20190;-79
2022/09/18 02:39:59;;;;;;;0.37;0.37;;;12.00;99.90;;;;;;5032480;28;20547;-79
2022/09/18 02:42:46;;;;;;;0.40;0.40;;;12.10;99.90;;;;;;5031388;28;20236;-79
2022/09/18 02:45:44;;;;;;;0.20;0.20;;;12.10;99.90;;;;;;5028751;28;20292;-79
2022/09/18 02:48:31;;;;;;;0.20;0.20;;;12.20;99.90;;;;;;5033748;28;20186;-79
2022/09/18 02:51:26;;;;;;;0.20;0.20;;;12.20;99.90;;;;;;5031702;28;20307;-79
2022/09/18 02:53:56;;;;;;;0.20;0.20;;;12.10;99.90;;;;;;5033817;28;20205;-79
2022/09/18 02:56:51;;;;;;;0.10;0.10;;;12.20;99.90;;;;;;5031763;28;20196;-79
2022/09/18 02:59:25;;;;;;;0.10;0.10;;;12.20;99.90;;;;;;5031808;28;20244;-79
2022/09/18 03:01:52;;;;;;;0.30;0.30;;;12.20;99.90;;;;;;5033583;28;20246;-79
2022/09/18 03:04:23;;;;;;;0.30;0.30;;;12.10;99.90;;;;;;5029725;28;20211;-79
2022/09/18 03:06:49;;;;;;;1.80;0.40;;;12.10;99.90;;;;;;5030870;28;20185;-79
2022/09/18 03:09:15;;;;;;;0.10;0.10;;;12.10;99.90;;;;;;5032705;28;20248;-79
2022/09/18 03:11:41;;;;;;;0.10;0.10;;;12.10;99.90;;;;;;5030306;28;20206;-79
2022/09/18 03:14:07;;;;;;;0.53;0.53;;;12.10;99.90;;;;;;5030000;28;20211;-79
2022/09/18 03:16:32;;;;;;;0.20;0.20;;;12.10;99.90;;;;;;5032937;28;20285;-79
2022/09/18 03:18:58;;;;;;;0.10;0.10;;;12.00;99.90;;;;;;5030667;28;20202;-79
2022/09/18 03:21:24;;;;;;;0.37;0.33;;;12.00;99.90;;;;;;5031061;28;20185;-79
2022/09/18 03:23:50;;;;;;;0.10;0.10;;;12.00;99.90;;;;;;5014802;28;20646;-79
2022/09/18 03:26:16;;;;;;;0.60;0.53;;;12.00;99.90;;;;;;5031455;28;20193;-79
2022/09/18 03:28:43;;;;;;;0.10;0.10;;;12.00;99.90;;;;;;5031769;28;20666;-79
2022/09/18 03:31:09;;;;;;;0.10;0.10;;;12.00;99.90;;;;;;5029656;28;20207;-79
2022/09/18 03:33:34;;;;;;;0.10;0.10;;;12.00;99.90;;;;;;5031570;28;20240;-79
2022/09/18 03:36:00;;;;;;;0.50;0.13;;;11.90;99.90;;;;;;5028090;28;20211;-79
2022/09/18 03:38:25;;;;;;;0.17;0.17;;;11.90;99.90;;;;;;5030997;28;20185;-79
2022/09/18 03:40:51;;;;;;;0.10;0.10;;;12.00;99.90;;;;;;5029263;28;20273;-79
2022/09/18 03:43:16;;;;;;;0.10;0.10;;;11.90;99.90;;;;;;5045365;28;20274;-79
2022/09/18 03:45:42;;;;;;;0.10;0.10;;;11.90;99.90;;;;;;5031749;28;20220;-79
2022/09/18 03:48:07;;;;;;;0.30;0.30;;;11.90;99.90;;;;;;5027861;28;20178;-79
2022/09/18 03:50:33;;;;;;;0.07;0.07;;;11.90;99.90;;;;;;5030376;28;20578;-79
2022/09/18 03:52:59;;;;;;;0.10;0.10;;;11.90;99.90;;;;;;5031814;28;20194;-79
2022/09/18 03:55:26;;;;;;;0.10;0.10;;;11.90;99.90;;;;;;5028207;28;20219;-79
2022/09/18 03:57:52;;;;;;;0.30;0.17;;;11.90;99.90;;;;;;5031171;28;20197;-79
2022/09/18 04:00:18;;;;;;;0.30;0.30;;;11.80;99.90;;;;;;5032769;28;20197;-79
2022/09/18 04:02:43;;;;;;;0.10;0.10;;;11.90;99.90;;;;;;5029841;28;20220;-79
2022/09/18 04:05:09;;;;;;;0.47;0.47;;;11.80;99.90;;;;;;5030355;28;20232;-79
2022/09/18 04:07:35;;;;;;;0.10;0.10;;;11.80;99.90;;;;;;5029230;28;20189;-79
2022/09/18 04:10:01;;;;;;;0.10;0.10;;;11.80;99.90;;;;;;5030286;28;20243;-79
2022/09/18 04:12:27;;;;;;;0.20;0.20;;;11.80;99.90;;;;;;5045901;28;20214;-79
2022/09/18 04:14:54;;;;;;;0.20;0.20;;;11.80;99.90;;;;;;5029250;28;20255;-79
2022/09/18 04:17:19;;;;;;;0.10;0.10;;;11.80;99.90;;;;;;5028970;28;20201;-79
2022/09/18 04:19:45;;;;;;;0.10;0.10;;;11.80;99.90;;;;;;5029884;28;20183;-79
2022/09/18 04:22:10;;;;;;;0.10;0.10;;;11.80;99.90;;;;;;5030501;28;20182;-79
2022/09/18 04:24:38;;;;;;;0.10;0.10;;;11.80;99.90;;;;;;5028640;28;20832;-79
2022/09/18 04:27:04;;;;;;;0.10;0.10;;;11.80;99.90;;;;;;5030726;28;20223;-79
2022/09/18 04:29:29;;;;;;;0.10;0.10;;;11.80;99.90;;;;;;5032510;28;20692;-79
2022/09/18 04:31:55;;;;;;;0.10;0.10;;;11.80;99.90;;;;;;5032272;28;20212;-79
2022/09/18 04:34:20;;;;;;;0.13;0.13;;;11.90;99.90;;;;;;5031294;28;20296;-79
2022/09/18 04:36:46;;;;;;;0.13;0.10;;;11.90;99.90;;;;;;5030572;28;20184;-79
2022/09/18 04:39:11;;;;;;;0.40;0.40;;;11.90;99.90;;;;;;5034905;28;20183;-79
2022/09/18 04:41:37;;;;;;;0.23;0.23;;;11.90;99.90;;;;;;5034035;28;20205;-79
2022/09/18 04:44:03;;;;;;;0.10;0.10;;;11.90;99.90;;;;;;5032105;28;20275;-79
2022/09/18 04:46:28;;;;;;;0.10;0.10;;;11.90;99.90;;;;;;5031562;28;20607;-79
2022/09/18 04:48:54;;;;;;;0.10;0.10;;;11.90;99.90;;;;;;5032545;28;20200;-79
2022/09/18 04:51:19;;;;;;;0.10;0.10;;;11.90;99.90;;;;;;5032856;28;20218;-79
2022/09/18 04:53:45;;;;;;;0.17;0.17;;;11.90;99.90;;;;;;5033761;28;20212;-79
2022/09/18 04:56:11;;;;;;;0.20;0.20;;;11.90;99.90;;;;;;5031719;28;20280;-79
2022/09/18 04:58:36;;;;;;;0.10;0.10;;;11.90;99.90;;;;;;5035176;28;20554;-79
2022/09/18 05:01:02;;;;;;;0.10;0.10;;;11.90;99.90;;;;;;5032202;28;20224;-79
2022/09/18 05:03:28;;;;;;;0.10;0.10;;;11.90;99.90;;;;;;5033202;28;20248;-79
2022/09/18 05:05:54;;;;;;;0.20;0.20;;;11.80;99.90;;;;;;5032886;28;20188;-79
2022/09/18 05:08:20;;;;;;;1.13;0.20;;;11.80;99.90;;;;;;5032304;28;20193;-79
2022/09/18 05:10:46;;;;;;;0.20;0.20;;;11.80;99.90;;;;;;5034084;28;20274;-79
2022/09/18 05:13:11;;;;;;;0.10;0.10;;;11.80;99.90;;;;;;5033983;28;20218;-79
2022/09/18 05:15:37;;;;;;;0.57;0.30;;;11.90;99.90;;;;;;5035177;28;20204;-80
2022/09/18 05:18:05;;;;;;;0.20;0.20;;;11.80;99.90;;;;;;5032153;28;20189;-79
2022/09/18 05:20:33;;;;;;;0.00;0.00;;;11.80;99.90;;;;;;5031657;28;20196;-79
2022/09/18 05:22:59;;;;;;;0.10;0.10;;;11.80;99.90;;;;;;5032950;28;20193;-79
2022/09/18 05:25:27;;;;;;;0.17;0.17;;;11.70;99.90;;;;;;5032762;28;20196;-79
2022/09/18 05:27:58;;;;;;;1.70;0.30;;;11.80;99.90;;;;;;5034174;28;20193;-79
2022/09/18 05:30:25;;;;;;;0.10;0.10;;;11.80;99.90;;;;;;5033469;28;20213;-79
2022/09/18 05:33:03;;;;;;;0.10;0.10;;;11.80;99.90;;;;;;5033454;28;20189;-79
2022/09/18 05:35:31;;;;;;;0.20;0.20;;;11.80;99.90;;;;;;5034692;28;20219;-79
2022/09/18 05:37:57;;;;;;;0.10;0.10;;;11.80;99.90;;;;;;5032439;28;20246;-79
2022/09/18 05:40:25;;;;;;;0.10;0.10;;;11.90;99.90;;;;;;5031400;28;20841;-79
2022/09/18 05:42:54;;;;;;;0.93;0.93;;;11.80;99.90;;;;;;5036336;28;20185;-80
2022/09/18 05:45:20;;;;;;;0.10;0.10;;;11.90;99.90;;;;;;5035312;28;20213;-79
2022/09/18 05:47:57;;;;;;;0.07;0.07;;;11.80;99.90;;;;;;5032559;28;20181;-81
2022/09/18 05:50:24;;;;;;;0.20;0.20;;;11.80;99.90;;;;;;5034373;28;20211;-80
2022/09/18 05:53:00;;;;;;;0.07;0.07;;;11.90;99.90;;;;;;5032642;28;20327;-80
2022/09/18 05:55:27;;;;;;;0.17;0.17;;;11.90;99.90;;;;;;5033637;28;20191;-80
2022/09/18 05:57:54;;;;;;;0.10;0.10;;;11.90;99.90;;;;;;5033898;28;20179;-80
2022/09/18 06:00:19;;;;;;;0.10;0.10;;;11.90;99.90;;;;;;5033245;28;20687;-80
2022/09/18 06:02:55;;;;;;;0.10;0.10;;;12.00;99.90;;;;;;5032672;28;20202;-81
2022/09/18 06:05:22;;;;;;;0.10;0.10;;;12.00;99.90;;;;;;5028526;28;20234;-79
2022/09/18 06:07:48;;;;;;;0.10;0.10;;;12.00;99.90;;;;;;5028674;28;20189;-79
2022/09/18 06:10:13;;;;;;;0.10;0.10;;;12.00;99.90;;;;;;5030481;28;20186;-79
2022/09/18 06:12:39;;;;;;;0.20;0.20;;;12.10;99.90;;;;;;5027524;28;20190;-80
2022/09/18 06:15:05;;;;;;;0.10;0.10;;;12.10;99.90;;;;;;5034354;28;20208;-80
2022/09/18 06:17:31;;;;;;;0.20;0.20;;;12.10;99.90;;;;;;5031582;28;20668;-80
2022/09/18 06:19:58;;;;;;;0.10;0.10;;;12.10;99.90;;;;;;5032234;28;20198;-81
2022/09/18 06:22:23;;;;;;;0.10;0.10;;;12.20;99.90;;;;;;5029252;28;20192;-79
2022/09/18 06:24:49;;;;;;;0.20;0.20;;;12.20;99.90;;;;;;5034919;28;20596;-79
2022/09/18 06:27:14;;;;;;;0.10;0.10;;;12.20;99.90;;;;;;5030949;28;20190;-79
2022/09/18 06:29:40;;;;;;;0.10;0.10;;;12.30;99.90;;;;;;5051403;28;20274;-79
2022/09/18 06:32:05;;;;;;;0.10;0.10;;;12.30;99.90;;;;;;5033787;28;20643;-79
2022/09/18 06:34:31;;;;;;;0.10;0.10;;;12.30;99.90;;;;;;5033095;28;20237;-79
2022/09/18 06:36:56;;;;;;;0.20;0.20;;;12.40;99.90;;;;;;5031182;28;20563;-79
2022/09/18 06:39:22;;;;;;;0.00;0.00;;;12.40;99.90;;;;;;5032689;28;20193;-79
2022/09/18 06:41:48;;;;;;;0.10;0.10;;;12.50;99.90;;;;;;5031058;28;20217;-79
2022/09/18 06:44:14;;;;;;;0.10;0.10;;;12.50;99.90;;;;;;5034207;28;20214;-79
2022/09/18 06:46:39;;;;;;;0.10;0.10;;;12.50;99.90;;;;;;5046806;28;20193;-79
2022/09/18 06:49:05;;;;;;;0.10;0.10;;;12.60;99.90;;;;;;5032542;28;20627;-79
2022/09/18 06:51:31;;;;;;;0.10;0.10;;;12.70;99.90;;;;;;5031030;28;20209;-79
2022/09/18 06:53:56;;;;;;;0.10;0.10;;;12.70;99.90;;;;;;5031021;28;20201;-79
2022/09/18 06:56:22;;;;;;;0.10;0.10;;;12.70;99.90;;;;;;5029777;28;20299;-79
2022/09/18 06:58:47;;;;;;;0.10;0.10;;;12.80;99.90;;;;;;5033642;28;20184;-80
2022/09/18 07:01:13;;;;;;;0.20;0.20;;;12.80;99.90;;;;;;5031200;28;20192;-80
2022/09/18 07:03:38;;;;;;;0.10;0.10;;;12.80;99.90;;;;;;5029801;28;20582;-80
2022/09/18 07:06:04;;;;;;;0.10;0.10;;;12.80;99.90;;;;;;5031711;28;20183;-80
2022/09/18 07:08:29;;;;;;;0.10;0.10;;;12.70;99.90;;;;;;5033507;28;20229;-80
2022/09/18 07:11:00;;;;;;;0.10;0.10;;;12.70;99.90;;;;;;5032219;28;20394;-80
2022/09/18 07:13:32;;;;;;;0.17;0.17;;;12.60;99.90;;;;;;5034465;28;20244;-80
2022/09/18 07:15:58;;;;;;;0.10;0.10;;;12.50;99.90;;;;;;5030069;28;20567;-80
2022/09/18 07:18:24;;;;;;;0.13;0.13;;;12.50;99.90;;;;;;5029556;28;20318;-80
2022/09/18 07:20:50;;;;;;;0.10;0.10;;;12.50;99.90;;;;;;5029915;28;20250;-79
2022/09/18 07:23:16;;;;;;;4.23;0.20;;;12.40;99.90;;;;;;5030930;28;20201;-83
2022/09/18 07:25:41;;;;;;;0.10;0.10;;;12.40;99.90;;;;;;5030321;28;20764;-80
2022/09/18 07:28:09;;;;;;;0.10;0.10;;;12.40;99.90;;;;;;5032051;28;20934;-80
2022/09/18 07:30:36;;;;;;;0.10;0.10;;;12.40;99.90;;;;;;5032652;28;20210;-79
2022/09/18 07:33:03;;;;;;;0.27;0.27;;;12.40;99.90;;;;;;5031330;28;20192;-79
2022/09/18 07:35:29;;;;;;;0.10;0.10;;;12.50;99.90;;;;;;5021552;28;20187;-79
2022/09/18 07:37:59;;;;;;;0.10;0.10;;;12.60;99.90;;;;;;5024411;28;20185;-78
2022/09/18 07:40:26;;;;;;;0.10;0.10;;;12.70;99.90;;;;;;5028820;28;20725;-79
2022/09/18 07:42:51;;;;;;;0.10;0.10;;;12.70;99.90;;;;;;5029141;28;20195;-79
2022/09/18 07:45:17;;;;;;;0.10;0.10;;;12.90;99.90;;;;;;5029501;28;20201;-79
2022/09/18 07:47:42;;;;;;;0.17;0.17;;;13.10;99.90;;;;;;5031370;28;20743;-79
2022/09/18 07:50:14;;;;;;;0.10;0.10;;;13.40;99.90;;;;;;5024974;28;20707;-79
2022/09/18 07:52:56;;;;;;;0.10;0.10;;;13.50;99.90;;;;;;5028457;28;20215;-79
2022/09/18 07:55:23;;;;;;;0.23;0.23;;;13.80;99.90;;;;;;5027887;28;20721;-79
2022/09/18 07:58:01;;;;;;;0.10;0.10;;;14.00;99.90;;;;;;5028927;28;20185;-79
2022/09/18 08:00:28;;;;;;;0.10;0.10;;;14.10;99.90;;;;;;5026862;28;20184;-81
2022/09/18 08:03:02;;;;;;;0.20;0.20;;;14.10;99.90;;;;;;5027744;28;20185;-79
2022/09/18 08:05:27;;;;;;;0.10;0.10;;;14.00;99.90;;;;;;5028014;28;20223;-79
2022/09/18 08:07:53;;;;;;;0.10;0.10;;;13.90;99.90;;;;;;5027972;28;20652;-79
2022/09/18 08:10:18;;;;;;;0.10;0.10;;;14.10;99.90;;;;;;5027885;28;20178;-79
2022/09/18 08:12:44;;;;;;;0.10;0.10;;;14.20;99.90;;;;;;5032018;28;20205;-79
2022/09/18 08:15:09;;;;;;;0.10;0.10;;;14.30;99.90;;;;;;5031277;28;20229;-79
2022/09/18 08:17:43;;;;;;;0.10;0.10;;;14.20;99.90;;;;;;5035936;28;20608;-79
2022/09/18 08:20:09;;;;;;;0.10;0.10;;;14.30;99.90;;;;;;5032135;28;20264;-79
2022/09/18 08:22:38;;;;;;;0.20;0.20;;;14.30;99.90;;;;;;5032949;28;20243;-80
2022/09/18 08:25:04;;;;;;;0.10;0.10;;;14.30;99.90;;;;;;5035606;28;20622;-79
2022/09/18 08:27:30;;;;;;;0.40;0.40;;;14.30;99.90;;;;;;5032502;28;20232;-79
2022/09/18 08:29:56;;;;;;;0.10;0.10;;;14.40;99.90;;;;;;5031788;28;20193;-80
2022/09/18 08:32:22;;;;;;;0.20;0.20;;;14.50;99.90;;;;;;5033594;28;20216;-80
2022/09/18 08:34:47;;;;;;;0.10;0.10;;;14.50;99.90;;;;;;5036691;28;20210;-80
2022/09/18 08:37:13;;;;;;;0.10;0.10;;;14.50;99.90;;;;;;5036285;28;20198;-79
2022/09/18 08:39:38;;;;;;;0.17;0.17;;;14.50;99.90;;;;;;5035984;28;20549;-79
2022/09/18 08:42:18;;;;;;;0.27;0.27;;;14.40;99.90;;;;;;5034696;28;20277;-79
2022/09/18 08:45:06;;;;;;;0.20;0.20;;;14.40;99.90;;;;;;5033114;28;20260;-80
2022/09/18 08:47:40;;;;;;;0.10;0.10;;;14.40;99.90;;;;;;5031871;28;20186;-80
2022/09/18 08:50:17;;;;;;;0.47;0.23;;;14.50;99.90;;;;;;5034862;28;20197;-79
2022/09/18 08:52:49;;;;;;;0.30;0.30;;;14.50;99.90;;;;;;5033058;28;20600;-79
2022/09/18 08:55:37;;;;;;;0.23;0.23;;;14.60;99.90;;;;;;5034287;28;20324;-79
2022/09/18 08:58:21;;;;;;;0.10;0.10;;;14.80;99.90;;;;;;5030817;28;20190;-79
2022/09/18 09:00:53;;;;;;;0.30;0.30;;;14.70;99.90;;;;;;5032011;28;20198;-80
2022/09/18 09:03:35;;;;;;;0.23;0.23;;;14.80;99.90;;;;;;5033672;28;20215;-80
2022/09/18 09:06:10;;;;;;;0.10;0.10;;;14.70;99.90;;;;;;5033306;28;20682;-80
2022/09/18 09:08:54;;;;;;;0.20;0.20;;;14.80;99.90;;;;;;5029410;28;20216;-79
2022/09/18 09:11:39;;;;;;;0.20;0.20;;;15.00;99.90;;;;;;5031161;28;20211;-79
2022/09/18 09:14:19;;;;;;;0.10;0.10;;;15.10;99.90;;;;;;5033723;28;20678;-80
2022/09/18 09:16:52;;;;;;;0.10;0.10;;;15.10;99.90;;;;;;5030999;28;20191;-79
2022/09/18 09:19:32;;;;;;;0.17;0.13;;;15.00;99.90;;;;;;5033258;28;20194;-80
2022/09/18 09:22:18;;;;;;;0.13;0.13;;;15.10;99.90;;;;;;5031439;28;20239;-80
2022/09/18 09:25:02;;;;;;;0.20;0.20;;;15.20;99.90;;;;;;5033934;28;20206;-79
2022/09/18 09:27:40;;;;;;;0.20;0.20;;;15.20;99.90;;;;;;5031692;28;20194;-79
2022/09/18 09:30:13;;;;;;;0.33;0.33;;;15.30;99.90;;;;;;5032154;28;20194;-79
2022/09/18 09:32:48;;;;;;;0.30;0.30;;;15.40;99.90;;;;;;5034432;28;20206;-80
2022/09/18 09:35:20;;;;;;;1.80;0.67;;;15.50;99.90;;;;;;5032726;28;20212;-80
2022/09/18 09:37:47;;;;;;;0.20;0.20;;;15.40;99.90;;;;;;5030758;28;20293;-79
2022/09/18 09:40:37;;;;;;;0.50;0.50;;;15.50;99.90;;;;;;5031392;28;20193;-80
2022/09/18 09:43:14;;;;;;;0.10;0.10;;;15.60;99.90;;;;;;5033125;28;20237;-80
2022/09/18 09:45:43;;;;;;;0.20;0.20;;;15.60;99.90;;;;;;5032958;28;20561;-79
2022/09/18 09:48:32;;;;;;;0.10;0.10;;;15.80;99.90;;;;;;5033422;28;20181;-79
2022/09/18 09:51:21;;;;;;;0.10;0.10;;;15.70;99.90;;;;;;5027277;28;20223;-80
2022/09/18 09:53:47;;;;;;;0.20;0.20;;;15.70;99.90;;;;;;5031293;28;21249;-80
2022/09/18 09:56:42;;;;;;;0.17;0.17;;;15.40;99.90;;;;;;5033525;28;20186;-79
2022/09/18 09:59:44;;;;;;;0.10;0.10;;;15.20;99.90;;;;;;5032938;28;20676;-79
2022/09/18 10:02:31;;;;;;;0.20;0.20;;;15.20;99.90;;;;;;5030703;28;20255;-79
2022/09/18 10:05:15;;;;;;;0.37;0.37;;;15.10;99.90;;;;;;5034722;28;20691;-80
2022/09/18 10:07:48;;;;;;;0.30;0.30;;;15.10;99.90;;;;;;5043926;28;20189;-79
2022/09/18 10:10:14;;;;;;;0.20;0.20;;;15.00;99.90;;;;;;5035789;28;20202;-79
2022/09/18 10:13:00;;;;;;;0.10;0.10;;;14.90;99.90;;;;;;5035595;28;20205;-80
2022/09/18 10:15:37;;;;;;;0.17;0.17;;;14.90;99.90;;;;;;5032655;28;20185;-80
2022/09/18 10:18:06;;;;;;;0.10;0.10;;;14.80;99.90;;;;;;5033388;28;20212;-79
2022/09/18 10:20:33;;;;;;;0.30;0.27;;;14.70;99.90;;;;;;5031306;28;20187;-80
2022/09/18 10:23:29;;;;;;;0.10;0.10;;;14.70;99.90;;;;;;5029084;28;20235;-79
2022/09/18 10:25:58;;;;;;;0.13;0.10;;;14.80;99.90;;;;;;5027993;28;20277;-79
2022/09/18 10:28:28;;;;;;;0.10;0.10;;;14.80;99.90;;;;;;5031362;28;20247;-79
2022/09/18 10:31:11;;;;;;;0.10;0.10;;;14.80;99.90;;;;;;5031918;28;20991;-79
2022/09/18 10:33:42;;;;;;;0.20;0.20;;;14.70;99.90;;;;;;5030520;28;20290;-79
2022/09/18 10:36:24;;;;;;;0.10;0.10;;;14.70;99.90;;;;;;5029192;28;20179;-80
2022/09/18 10:38:50;;;;;;;0.10;0.10;;;14.80;99.90;;;;;;5027931;28;20184;-79
2022/09/18 10:41:37;;;;;;;0.10;0.10;;;14.80;99.90;;;;;;5034094;28;20550;-79
2022/09/18 10:44:05;;;;;;;0.10;0.10;;;14.80;99.90;;;;;;5027494;28;20197;-79
2022/09/18 10:46:33;;;;;;;0.17;0.17;;;14.70;99.90;;;;;;5031999;28;20544;-79
2022/09/18 10:49:15;;;;;;;0.10;0.10;;;14.70;99.90;;;;;;5031480;28;20204;-79
2022/09/18 10:51:41;;;;;;;0.20;0.20;;;14.80;99.90;;;;;;5029912;28;20886;-79
2022/09/18 10:54:17;;;;;;;0.10;0.10;;;14.80;99.90;;;;;;5031845;28;20198;-79
2022/09/18 10:56:43;;;;;;;0.20;0.20;;;14.70;99.90;;;;;;5049499;28;20272;-79
2022/09/18 10:59:32;;;;;;;0.33;0.33;;;14.80;99.90;;;;;;5031564;28;20744;-79
2022/09/18 11:02:00;;;;;;;0.30;0.30;;;14.90;99.90;;;;;;5032102;28;20699;-79
2022/09/18 11:04:27;;;;;;;0.30;0.23;;;15.10;99.90;;;;;;5032330;28;20213;-79
2022/09/18 11:06:55;;;;;;;0.30;0.30;;;15.20;99.90;;;;;;5030653;28;20535;-79
2022/09/18 11:09:30;;;;;;;0.10;0.10;;;15.30;99.90;;;;;;5032165;28;20244;-79
2022/09/18 11:11:56;;;;;;;0.30;0.20;;;15.30;99.90;;;;;;5032219;28;20220;-79
2022/09/18 11:14:25;;;;;;;0.20;0.20;;;15.30;99.90;;;;;;5031084;28;20214;-79
2022/09/18 11:16:54;;;;;;;0.10;0.10;;;15.10;99.90;;;;;;5027615;28;20217;-79
2022/09/18 11:19:32;;;;;;;0.10;0.10;;;15.10;99.90;;;;;;5029271;28;20182;-80
2022/09/18 11:22:39;;;;;;;0.50;0.40;;;15.20;99.90;;;;;;5031421;28;20185;-79
2022/09/18 11:25:17;;;;;;;0.20;0.20;;;15.10;99.90;;;;;;5032059;28;21032;-80
2022/09/18 11:27:45;;;;;;;0.30;0.30;;;14.90;99.90;;;;;;5033052;28;20182;-79
2022/09/18 11:30:26;;;;;;;0.10;0.10;;;14.60;99.90;;;;;;5032491;28;20668;-79
2022/09/18 11:33:08;;;;;;;0.20;0.20;;;14.60;99.90;;;;;;5033922;28;20177;-79
2022/09/18 11:35:35;;;;;;;0.10;0.10;;;14.60;99.90;;;;;;5030310;28;20216;-79
2022/09/18 11:38:06;;;;;;;0.20;0.20;;;14.50;99.90;;;;;;5032858;28;20692;-79
2022/09/18 11:40:44;;;;;;;1.07;0.53;;;14.40;99.90;;;;;;5028990;28;20244;-80
2022/09/18 11:43:15;;;;;;;0.13;0.13;;;14.40;99.90;;;;;;5031578;28;20272;-79
2022/09/18 11:45:53;;;;;;;0.10;0.10;;;14.30;99.90;;;;;;5034096;28;20182;-79
2022/09/18 11:48:28;;;;;;;0.33;0.33;;;14.30;99.90;;;;;;5030729;28;20186;-79
2022/09/18 11:50:58;;;;;;;0.20;0.20;;;14.30;99.90;;;;;;5031844;28;20259;-79
2022/09/18 11:53:28;;;;;;;0.20;0.20;;;14.40;99.90;;;;;;5034122;28;20765;-79
2022/09/18 11:56:48;;;;;;;0.17;0.17;;;14.40;99.90;;;;;;5032947;28;20177;-80
2022/09/18 11:59:43;;;;;;;1.33;1.23;;;14.40;99.90;;;;;;5024362;28;20271;-79
2022/09/18 12:02:18;;;;;;;0.20;0.20;;;14.50;99.90;;;;;;5028937;28;20186;-79
2022/09/18 12:04:51;;;;;;;0.10;0.10;;;14.60;99.90;;;;;;5031420;28;20213;-80
2022/09/18 12:07:47;;;;;;;0.50;0.50;;;14.60;99.90;;;;;;5033117;28;20188;-80
2022/09/18 12:10:28;;;;;;;0.10;0.10;;;14.60;99.90;;;;;;5033608;28;20659;-80
2022/09/18 12:13:13;;;;;;;0.10;0.10;;;14.60;99.90;;;;;;5034075;28;20268;-80
2022/09/18 12:15:43;;;;;;;0.30;0.30;;;14.50;99.90;;;;;;5033686;28;20178;-80
2022/09/18 12:18:17;;;;;;;0.17;0.17;;;14.60;99.90;;;;;;5031238;28;20174;-80
2022/09/18 12:20:48;;;;;;;0.20;0.20;;;14.60;99.90;;;;;;5032023;28;20186;-80
2022/09/18 12:23:19;;;;;;;0.20;0.20;;;14.50;99.90;;;;;;5032964;28;20642;-80
2022/09/18 12:26:05;;;;;;;0.40;0.40;;;14.50;99.90;;;;;;5032112;28;20241;-80
2022/09/18 12:28:40;;;;;;;0.30;0.10;;;14.50;99.90;;;;;;5032218;28;20182;-80
2022/09/18 12:31:24;;;;;;;0.67;0.67;;;14.50;99.90;;;;;;5033453;28;20238;-80
2022/09/18 12:34:25;;;;;;;0.10;0.10;;;14.50;99.90;;;;;;5032564;28;20205;-80
2022/09/18 12:37:12;;;;;;;0.47;0.10;;;14.50;99.90;;;;;;5034712;28;20180;-80
2022/09/18 12:39:59;;;;;;;0.13;0.13;;;14.60;99.90;;;;;;5031915;28;20608;-80
2022/09/18 12:43:01;;;;;;;0.10;0.10;;;14.60;99.90;;;;;;5031256;28;20198;-79
2022/09/18 12:45:30;;;;;;;0.10;0.10;;;14.60;99.90;;;;;;5027762;28;20191;-80
2022/09/18 12:48:01;;;;;;;0.30;0.30;;;14.70;99.90;;;;;;5029174;28;20917;-80
2022/09/18 12:50:42;;;;;;;0.20;0.20;;;14.70;99.90;;;;;;5028285;28;20192;-80
2022/09/18 12:53:16;;;;;;;0.10;0.10;;;14.70;99.90;;;;;;5028315;28;20190;-80
2022/09/18 12:56:10;;;;;;;0.20;0.20;;;14.70;99.90;;;;;;5030449;28;20277;-80
2022/09/18 12:58:44;;;;;;;0.10;0.10;;;14.70;99.90;;;;;;5033137;28;20181;-80
2022/09/18 13:01:30;;;;;;;0.20;0.20;;;14.70;99.90;;;;;;5037200;28;20186;-80
2022/09/18 13:04:04;;;;;;;0.17;0.17;;;14.80;99.90;;;;;;5035652;28;20205;-80
2022/09/18 13:06:37;;;;;;;0.27;0.27;;;14.90;99.90;;;;;;5031673;28;20183;-80
2022/09/18 13:09:19;;;;;;;0.63;0.30;;;14.80;99.90;;;;;;5034077;28;20713;-80
2022/09/18 13:11:53;;;;;;;0.20;0.20;;;14.80;99.90;;;;;;5033777;28;20205;-80
2022/09/18 13:14:25;;;;;;;0.30;0.30;;;14.80;99.90;;;;;;5031215;28;20596;-80